sensor_id;sensor_type;location;lat;lon;timestamp;pressure;altitude;pressure_sealevel;temperature;humidity
42511;BME280;28141;51.120;17.114;2023-08-01T00:00:41;100608.03;;;32.27;35.38
42511;BME280;28141;51.120;17.114;2023-08-01T00:04:21;100614.77;;;32.26;35.58
42511;BME280;28141;51.120;17.114;2023-08-01T00:07:35;100603.84;;;32.24;35.37
42511;BME280;28141;51.120;17.114;2023-08-01T00:10:49;100601.05;;;32.24;35.31
42511;BME280;28141;51.120;17.114;2023-08-01T00:14:03;100594.60;;;32.24;35.54
42511;BME280;28141;51.120;17.114;2023-08-01T00:17:43;100589.60;;;32.21;35.65
42511;BME280;28141;51.120;17.114;2023-08-01T00:20:57;100589.31;;;32.22;35.79
42511;BME280;28141;51.120;17.114;2023-08-01T00:24:12;100581.73;;;32.23;35.96
42511;BME280;28141;51.120;17.114;2023-08-01T00:27:26;100576.14;;;32.23;36.27
42511;BME280;28141;51.120;17.114;2023-08-01T00:31:08;100578.95;;;32.23;35.63
42511;BME280;28141;51.120;17.114;2023-08-01T00:34:22;100562.93;;;32.23;35.53
42511;BME280;28141;51.120;17.114;2023-08-01T00:37:37;100561.28;;;32.22;35.21
42511;BME280;28141;51.120;17.114;2023-08-01T00:40:52;100558.77;;;32.21;35.33
42511;BME280;28141;51.120;17.114;2023-08-01T00:44:32;100561.87;;;32.19;35.68
42511;BME280;28141;51.120;17.114;2023-08-01T00:47:46;100554.59;;;32.18;36.32
42511;BME280;28141;51.120;17.114;2023-08-01T00:51:04;100542.79;;;32.16;35.54
42511;BME280;28141;51.120;17.114;2023-08-01T00:54:19;100536.93;;;32.18;35.11
42511;BME280;28141;51.120;17.114;2023-08-01T00:57:59;100536.65;;;32.14;35.74
42511;BME280;28141;51.120;17.114;2023-08-01T01:01:13;100522.92;;;32.13;35.92
42511;BME280;28141;51.120;17.114;2023-08-01T01:04:27;100524.59;;;32.14;35.05
42511;BME280;28141;51.120;17.114;2023-08-01T01:07:42;100514.23;;;32.14;35.03
42511;BME280;28141;51.120;17.114;2023-08-01T01:10:57;100511.13;;;32.16;36.34
42511;BME280;28141;51.120;17.114;2023-08-01T01:14:11;100494.90;;;32.13;36.09
42511;BME280;28141;51.120;17.114;2023-08-01T01:17:51;100497.18;;;32.11;35.82
42511;BME280;28141;51.120;17.114;2023-08-01T01:21:05;100485.42;;;32.09;36.42
42511;BME280;28141;51.120;17.114;2023-08-01T01:24:21;100476.19;;;32.08;35.76
42511;BME280;28141;51.120;17.114;2023-08-01T01:27:38;100477.56;;;32.11;36.05
42511;BME280;28141;51.120;17.114;2023-08-01T01:31:19;100471.41;;;32.09;35.84
42511;BME280;28141;51.120;17.114;2023-08-01T01:34:33;100472.26;;;32.09;35.99
42511;BME280;28141;51.120;17.114;2023-08-01T01:37:47;100469.49;;;32.04;35.50
42511;BME280;28141;51.120;17.114;2023-08-01T01:41:01;100458.58;;;32.03;35.92
42511;BME280;28141;51.120;17.114;2023-08-01T01:44:41;100467.59;;;32.00;35.98
42511;BME280;28141;51.120;17.114;2023-08-01T01:47:55;100452.75;;;31.99;35.28
42511;BME280;28141;51.120;17.114;2023-08-01T01:51:08;100447.43;;;31.98;35.69
42511;BME280;28141;51.120;17.114;2023-08-01T01:54:22;100444.09;;;31.96;35.71
42511;BME280;28141;51.120;17.114;2023-08-01T01:58:02;100437.94;;;31.93;36.08
42511;BME280;28141;51.120;17.114;2023-08-01T02:01:16;100435.14;;;31.93;35.76
42511;BME280;28141;51.120;17.114;2023-08-01T02:04:30;100427.87;;;31.92;35.77
42511;BME280;28141;51.120;17.114;2023-08-01T02:07:44;100427.35;;;31.90;35.90
42511;BME280;28141;51.120;17.114;2023-08-01T02:11:24;100426.80;;;31.88;36.19
42511;BME280;28141;51.120;17.114;2023-08-01T02:14:38;100412.26;;;31.86;36.33
42511;BME280;28141;51.120;17.114;2023-08-01T02:17:52;100408.91;;;31.84;35.76
42511;BME280;28141;51.120;17.114;2023-08-01T02:21:06;100403.59;;;31.83;36.82
42511;BME280;28141;51.120;17.114;2023-08-01T02:24:47;100409.49;;;31.81;36.28
42511;BME280;28141;51.120;17.114;2023-08-01T02:28:01;100406.18;;;31.79;36.58
42511;BME280;28141;51.120;17.114;2023-08-01T02:31:15;100405.09;;;31.75;36.60
42511;BME280;28141;51.120;17.114;2023-08-01T02:34:29;100405.09;;;31.75;36.47
42511;BME280;28141;51.120;17.114;2023-08-01T02:38:09;100401.74;;;31.73;36.42
42511;BME280;28141;51.120;17.114;2023-08-01T02:41:23;100392.79;;;31.71;36.34
42511;BME280;28141;51.120;17.114;2023-08-01T02:44:37;100396.72;;;31.70;36.65
42511;BME280;28141;51.120;17.114;2023-08-01T02:47:52;100385.52;;;31.70;36.66
42511;BME280;28141;51.120;17.114;2023-08-01T02:51:34;100380.24;;;31.69;36.49
42511;BME280;28141;51.120;17.114;2023-08-01T02:54:48;100378.25;;;31.69;36.52
42511;BME280;28141;51.120;17.114;2023-08-01T02:58:02;100376.60;;;31.68;36.43
42511;BME280;28141;51.120;17.114;2023-08-01T03:01:16;100372.97;;;31.68;36.58
42511;BME280;28141;51.120;17.114;2023-08-01T03:04:56;100364.86;;;31.66;36.54
42511;BME280;28141;51.120;17.114;2023-08-01T03:08:10;100360.67;;;31.64;36.63
42511;BME280;28141;51.120;17.114;2023-08-01T03:11:24;100369.07;;;31.64;36.51
42511;BME280;28141;51.120;17.114;2023-08-01T03:14:38;100355.91;;;31.64;36.32
42511;BME280;28141;51.120;17.114;2023-08-01T03:18:22;100363.48;;;31.64;36.63
42511;BME280;28141;51.120;17.114;2023-08-01T03:21:36;100356.76;;;31.60;36.27
42511;BME280;28141;51.120;17.114;2023-08-01T03:24:50;100347.23;;;31.61;36.82
42511;BME280;28141;51.120;17.114;2023-08-01T03:28:04;100350.86;;;31.61;36.80
42511;BME280;28141;51.120;17.114;2023-08-01T03:31:44;100352.53;;;31.67;36.58
42511;BME280;28141;51.120;17.114;2023-08-01T03:34:58;100349.19;;;31.65;36.76
42511;BME280;28141;51.120;17.114;2023-08-01T03:38:12;100344.42;;;31.66;36.78
42511;BME280;28141;51.120;17.114;2023-08-01T03:41:26;100337.45;;;31.63;36.67
42511;BME280;28141;51.120;17.114;2023-08-01T03:45:07;100332.39;;;31.60;36.74
42511;BME280;28141;51.120;17.114;2023-08-01T03:48:21;100320.67;;;31.58;36.84
42511;BME280;28141;51.120;17.114;2023-08-01T03:51:35;100320.13;;;31.56;36.70
42511;BME280;28141;51.120;17.114;2023-08-01T03:54:49;100322.10;;;31.55;36.77
42511;BME280;28141;51.120;17.114;2023-08-01T03:58:32;100330.24;;;31.52;36.91
42511;BME280;28141;51.120;17.114;2023-08-01T04:01:46;100321.84;;;31.52;36.91
42511;BME280;28141;51.120;17.114;2023-08-01T04:05:00;100299.08;;;31.35;37.39
42511;BME280;28141;51.120;17.114;2023-08-01T04:08:14;100323.55;;;31.48;36.91
42511;BME280;28141;51.120;17.114;2023-08-01T04:11:28;100321.37;;;31.45;36.81
42511;BME280;28141;51.120;17.114;2023-08-01T04:15:09;100328.92;;;31.44;37.15
42511;BME280;28141;51.120;17.114;2023-08-01T04:18:23;100324.74;;;31.42;37.05
42511;BME280;28141;51.120;17.114;2023-08-01T04:21:37;100325.04;;;31.40;37.20
42511;BME280;28141;51.120;17.114;2023-08-01T04:24:51;100321.12;;;31.41;37.20
42511;BME280;28141;51.120;17.114;2023-08-01T04:28:32;100328.14;;;31.39;37.29
42511;BME280;28141;51.120;17.114;2023-08-01T04:31:46;100329.26;;;31.38;37.04
42511;BME280;28141;51.120;17.114;2023-08-01T04:35:00;100333.73;;;31.39;37.00
42511;BME280;28141;51.120;17.114;2023-08-01T04:38:14;100320.86;;;31.38;37.15
42511;BME280;28141;51.120;17.114;2023-08-01T04:41:54;100322.82;;;31.37;37.46
42511;BME280;28141;51.120;17.114;2023-08-01T04:45:08;100323.98;;;31.36;36.98
42511;BME280;28141;51.120;17.114;2023-08-01T04:48:22;100311.12;;;31.35;37.18
42511;BME280;28141;51.120;17.114;2023-08-01T04:51:36;100309.45;;;31.34;37.42
42511;BME280;28141;51.120;17.114;2023-08-01T04:55:16;100306.09;;;31.32;37.66
42511;BME280;28141;51.120;17.114;2023-08-01T04:58:30;100310.85;;;31.32;38.01
42511;BME280;28141;51.120;17.114;2023-08-01T05:01:44;100302.64;;;31.40;37.88
42511;BME280;28141;51.120;17.114;2023-08-01T05:04:58;100302.64;;;31.40;37.35
42511;BME280;28141;51.120;17.114;2023-08-01T05:08:38;100306.87;;;31.38;37.93
42511;BME280;28141;51.120;17.114;2023-08-01T05:11:52;100301.33;;;31.33;38.08
42511;BME280;28141;51.120;17.114;2023-08-01T05:15:07;100304.13;;;31.33;38.29
42511;BME280;28141;51.120;17.114;2023-08-01T05:18:21;100297.41;;;31.34;38.33
42511;BME280;28141;51.120;17.114;2023-08-01T05:22:01;100297.70;;;31.32;38.36
42511;BME280;28141;51.120;17.114;2023-08-01T05:25:15;100294.36;;;31.30;38.40
42511;BME280;28141;51.120;17.114;2023-08-01T05:28:29;100288.72;;;31.35;38.50
42511;BME280;28141;51.120;17.114;2023-08-01T05:31:43;100279.78;;;31.33;38.54
42511;BME280;28141;51.120;17.114;2023-08-01T05:35:23;100277.27;;;31.32;38.74
42511;BME280;28141;51.120;17.114;2023-08-01T05:38:37;100284.84;;;31.31;38.58
42511;BME280;28141;51.120;17.114;2023-08-01T05:41:51;100287.63;;;31.31;38.95
42511;BME280;28141;51.120;17.114;2023-08-01T05:45:06;100288.76;;;31.30;38.97
42511;BME280;28141;51.120;17.114;2023-08-01T05:48:46;100293.23;;;31.31;39.14
42511;BME280;28141;51.120;17.114;2023-08-01T05:52:00;100286.54;;;31.27;39.16
42511;BME280;28141;51.120;17.114;2023-08-01T05:55:14;100275.96;;;31.24;39.37
42511;BME280;28141;51.120;17.114;2023-08-01T05:58:28;100279.53;;;31.30;39.27
42511;BME280;28141;51.120;17.114;2023-08-01T06:02:08;100280.94;;;31.27;39.57
42511;BME280;28141;51.120;17.114;2023-08-01T06:05:22;100274.51;;;31.27;39.63
42511;BME280;28141;51.120;17.114;2023-08-01T06:08:36;100268.63;;;31.28;39.80
42511;BME280;28141;51.120;17.114;2023-08-01T06:11:50;100267.50;;;31.29;40.08
42511;BME280;28141;51.120;17.114;2023-08-01T06:15:30;100265.24;;;31.31;40.01
42511;BME280;28141;51.120;17.114;2023-08-01T06:18:44;100268.88;;;31.32;39.92
42511;BME280;28141;51.120;17.114;2023-08-01T06:21:58;100260.48;;;31.32;40.02
42511;BME280;28141;51.120;17.114;2023-08-01T06:25:13;100255.17;;;31.30;40.42
42511;BME280;28141;51.120;17.114;2023-08-01T06:28:53;100255.46;;;31.29;40.25
42511;BME280;28141;51.120;17.114;2023-08-01T06:32:08;100254.05;;;31.31;40.06
42511;BME280;28141;51.120;17.114;2023-08-01T06:35:21;100249.54;;;31.35;40.05
42511;BME280;28141;51.120;17.114;2023-08-01T06:38:35;100246.69;;;30.38;40.77
42511;BME280;28141;51.120;17.114;2023-08-01T06:42:16;100252.45;;;28.83;41.14
42511;BME280;28141;51.120;17.114;2023-08-01T06:45:29;100251.45;;;28.01;40.75
42511;BME280;28141;51.120;17.114;2023-08-01T06:48:44;100240.36;;;27.54;39.47
42511;BME280;28141;51.120;17.114;2023-08-01T06:51:58;100236.79;;;27.16;39.95
42511;BME280;28141;51.120;17.114;2023-08-01T06:55:37;100230.26;;;26.96;40.28
42511;BME280;28141;51.120;17.114;2023-08-01T06:58:51;100225.46;;;27.28;42.60
42511;BME280;28141;51.120;17.114;2023-08-01T07:02:05;100213.41;;;27.59;45.08
42511;BME280;28141;51.120;17.114;2023-08-01T07:05:21;100211.61;;;27.90;46.98
42511;BME280;28141;51.120;17.114;2023-08-01T07:09:02;100218.34;;;28.10;47.91
42511;BME280;28141;51.120;17.114;2023-08-01T07:12:16;100211.13;;;28.24;48.51
42511;BME280;28141;51.120;17.114;2023-08-01T07:15:31;100210.62;;;28.42;47.88
42511;BME280;28141;51.120;17.114;2023-08-01T07:18:45;100220.53;;;27.97;46.31
42511;BME280;28141;51.120;17.114;2023-08-01T07:22:27;100224.27;;;27.61;45.52
42511;BME280;28141;51.120;17.114;2023-08-01T07:25:41;100210.44;;;27.76;47.10
42511;BME280;28141;51.120;17.114;2023-08-01T07:28:55;100200.74;;;27.94;48.26
42511;BME280;28141;51.120;17.114;2023-08-01T07:32:09;100197.73;;;28.16;48.92
42511;BME280;28141;51.120;17.114;2023-08-01T07:35:51;100201.69;;;28.30;48.55
42511;BME280;28141;51.120;17.114;2023-08-01T07:39:05;100199.57;;;27.80;46.74
42511;BME280;28141;51.120;17.114;2023-08-01T07:42:19;100195.35;;;27.57;45.39
42511;BME280;28141;51.120;17.114;2023-08-01T07:45:34;100189.55;;;27.74;48.01
42511;BME280;28141;51.120;17.114;2023-08-01T07:49:14;100180.20;;;28.10;49.05
42511;BME280;28141;51.120;17.114;2023-08-01T07:52:28;100168.52;;;28.23;48.96
42511;BME280;28141;51.120;17.114;2023-08-01T07:55:42;100184.71;;;28.31;49.02
42511;BME280;28141;51.120;17.114;2023-08-01T07:58:56;100181.21;;;27.74;47.69
42511;BME280;28141;51.120;17.114;2023-08-01T08:02:36;100174.20;;;27.61;46.46
42511;BME280;28141;51.120;17.114;2023-08-01T08:05:50;100178.45;;;27.84;48.92
42511;BME280;28141;51.120;17.114;2023-08-01T08:11:43;100152.11;;;28.37;49.84
42511;BME280;28141;51.120;17.114;2023-08-01T08:14:56;100157.11;;;28.45;49.27
42511;BME280;28141;51.120;17.114;2023-08-01T08:18:10;100151.55;;;28.50;47.60
42511;BME280;28141;51.120;17.114;2023-08-01T08:21:24;100146.95;;;29.40;46.13
42511;BME280;28141;51.120;17.114;2023-08-01T08:25:04;100144.16;;;29.90;45.02
42511;BME280;28141;51.120;17.114;2023-08-01T08:28:30;100123.87;;;30.18;44.13
42511;BME280;28141;51.120;17.114;2023-08-01T08:31:45;100116.70;;;30.41;44.16
42511;BME280;28141;51.120;17.114;2023-08-01T08:35:27;100119.01;;;30.68;43.49
42511;BME280;28141;51.120;17.114;2023-08-01T08:38:41;100104.34;;;30.81;43.07
42511;BME280;28141;51.120;17.114;2023-08-01T08:41:54;100094.63;;;30.97;43.43
42511;BME280;28141;51.120;17.114;2023-08-01T08:45:09;100101.52;;;31.10;42.89
42511;BME280;28141;51.120;17.114;2023-08-01T08:48:49;100098.67;;;31.15;42.67
42511;BME280;28141;51.120;17.114;2023-08-01T08:52:04;100099.38;;;31.26;42.53
42511;BME280;28141;51.120;17.114;2023-08-01T08:55:20;100109.95;;;31.29;42.84
42511;BME280;28141;51.120;17.114;2023-08-01T08:58:36;100115.55;;;31.29;42.25
42511;BME280;28141;51.120;17.114;2023-08-01T09:02:18;100102.80;;;31.41;42.39
42511;BME280;28141;51.120;17.114;2023-08-01T09:09:09;100099.94;;;31.46;41.99
42511;BME280;28141;51.120;17.114;2023-08-01T09:12:50;100102.25;;;31.63;42.15
42511;BME280;28141;51.120;17.114;2023-08-01T09:16:06;100078.84;;;31.54;41.61
42511;BME280;28141;51.120;17.114;2023-08-01T09:19:23;100099.23;;;31.78;41.94
42511;BME280;28141;51.120;17.114;2023-08-01T09:22:44;100099.45;;;31.82;41.81
42511;BME280;28141;51.120;17.114;2023-08-01T09:25:58;100106.41;;;31.84;41.86
42511;BME280;28141;51.120;17.114;2023-08-01T09:29:38;100111.18;;;31.84;41.77
42511;BME280;28141;51.120;17.114;2023-08-01T09:32:56;100101.64;;;31.85;41.90
42511;BME280;28141;51.120;17.114;2023-08-01T09:36:10;100102.63;;;31.75;42.30
42511;BME280;28141;51.120;17.114;2023-08-01T09:39:29;100102.19;;;31.68;42.38
42511;BME280;28141;51.120;17.114;2023-08-01T09:43:11;100097.03;;;31.75;42.06
42511;BME280;28141;51.120;17.114;2023-08-01T09:46:25;100088.34;;;31.77;42.05
42511;BME280;28141;51.120;17.114;2023-08-01T09:49:48;100091.96;;;31.77;41.45
42511;BME280;28141;51.120;17.114;2023-08-01T09:53:09;100080.67;;;31.82;41.86
42511;BME280;28141;51.120;17.114;2023-08-01T09:56:51;100080.77;;;31.77;41.99
42511;BME280;28141;51.120;17.114;2023-08-01T10:00:06;100069.47;;;31.82;42.56
42511;BME280;28141;51.120;17.114;2023-08-01T10:03:22;100071.07;;;31.88;42.16
42511;BME280;28141;51.120;17.114;2023-08-01T10:06:37;100069.10;;;31.89;42.00
42511;BME280;28141;51.120;17.114;2023-08-01T10:10:18;100065.66;;;31.92;41.79
42511;BME280;28141;51.120;17.114;2023-08-01T10:13:34;100054.99;;;31.94;41.81
42511;BME280;28141;51.120;17.114;2023-08-01T10:16:49;100044.93;;;31.93;41.86
42511;BME280;28141;51.120;17.114;2023-08-01T10:20:06;100046.40;;;31.90;42.52
42511;BME280;28141;51.120;17.114;2023-08-01T10:23:47;100049.79;;;31.87;41.88
42511;BME280;28141;51.120;17.114;2023-08-01T10:27:11;100038.20;;;31.94;41.90
42511;BME280;28141;51.120;17.114;2023-08-01T10:30:27;100042.96;;;31.93;41.20
42511;BME280;28141;51.120;17.114;2023-08-01T10:34:13;100040.03;;;31.85;41.82
42511;BME280;28141;51.120;17.114;2023-08-01T10:37:38;100036.75;;;31.97;41.98
42511;BME280;28141;51.120;17.114;2023-08-01T10:40:46;100029.48;;;31.96;41.92
42511;BME280;28141;51.120;17.114;2023-08-01T10:44:06;100017.98;;;31.97;41.68
42511;BME280;28141;51.120;17.114;2023-08-01T10:47:48;100027.22;;;31.98;41.60
42511;BME280;28141;51.120;17.114;2023-08-01T10:51:02;100022.22;;;31.95;41.14
42511;BME280;28141;51.120;17.114;2023-08-01T10:54:23;100025.98;;;32.04;42.18
42511;BME280;28141;51.120;17.114;2023-08-01T10:57:49;100029.72;;;31.99;41.87
42511;BME280;28141;51.120;17.114;2023-08-01T11:01:29;100040.03;;;31.85;41.71
42511;BME280;28141;51.120;17.114;2023-08-01T11:04:44;100029.05;;;31.88;41.56
42511;BME280;28141;51.120;17.114;2023-08-01T11:08:03;100030.09;;;31.92;41.42
42511;BME280;28141;51.120;17.114;2023-08-01T11:11:18;100025.55;;;31.97;42.24
42511;BME280;28141;51.120;17.114;2023-08-01T11:15:00;100034.48;;;31.99;41.65
42511;BME280;28141;51.120;17.114;2023-08-01T11:18:14;100015.71;;;31.99;41.04
42511;BME280;28141;51.120;17.114;2023-08-01T11:21:28;100011.56;;;30.21;42.77
42511;BME280;28141;51.120;17.114;2023-08-01T11:24:50;100024.11;;;28.96;43.18
42511;BME280;28141;51.120;17.114;2023-08-01T11:28:30;100024.26;;;27.95;42.58
42511;BME280;28141;51.120;17.114;2023-08-01T11:35:18;100004.09;;;27.12;42.47
42511;BME280;28141;51.120;17.114;2023-08-01T11:38:59;99990.82;;;27.54;45.02
42511;BME280;28141;51.120;17.114;2023-08-01T11:42:17;99990.31;;;27.88;46.87
42511;BME280;28141;51.120;17.114;2023-08-01T11:45:31;99987.80;;;28.12;48.95
42511;BME280;28141;51.120;17.114;2023-08-01T11:48:45;99976.87;;;28.51;49.14
42511;BME280;28141;51.120;17.114;2023-08-01T11:52:31;99972.62;;;29.28;48.61
42511;BME280;28141;51.120;17.114;2023-08-01T11:55:45;99962.35;;;29.96;46.73
42511;BME280;28141;51.120;17.114;2023-08-01T11:58:59;99961.88;;;30.42;45.74
42511;BME280;28141;51.120;17.114;2023-08-01T12:02:21;99962.86;;;30.80;44.34
42511;BME280;28141;51.120;17.114;2023-08-01T12:06:06;99968.09;;;31.05;43.53
42511;BME280;28141;51.120;17.114;2023-08-01T12:09:24;99957.86;;;31.19;43.48
42511;BME280;28141;51.120;17.114;2023-08-01T12:12:46;99954.02;;;31.34;42.74
42511;BME280;28141;51.120;17.114;2023-08-01T12:16:26;99940.29;;;31.51;42.37
42511;BME280;28141;51.120;17.114;2023-08-01T12:19:40;99940.95;;;31.62;42.62
42511;BME280;28141;51.120;17.114;2023-08-01T12:22:54;99945.81;;;31.75;41.93
42511;BME280;28141;51.120;17.114;2023-08-01T12:26:08;99941.39;;;31.88;41.01
42511;BME280;28141;51.120;17.114;2023-08-01T12:29:48;99942.34;;;31.97;41.34
42511;BME280;28141;51.120;17.114;2023-08-01T12:33:02;99928.45;;;32.06;41.21
42511;BME280;28141;51.120;17.114;2023-08-01T12:36:16;99926.07;;;32.13;41.30
42511;BME280;28141;51.120;17.114;2023-08-01T12:39:30;99923.49;;;32.16;41.21
42511;BME280;28141;51.120;17.114;2023-08-01T12:43:11;99927.89;;;32.22;40.61
42511;BME280;28141;51.120;17.114;2023-08-01T12:46:25;99938.77;;;32.24;41.02
42511;BME280;28141;51.120;17.114;2023-08-01T12:49:39;99940.89;;;32.32;39.81
42511;BME280;28141;51.120;17.114;2023-08-01T12:52:52;99936.21;;;32.41;39.92
42511;BME280;28141;51.120;17.114;2023-08-01T12:56:32;99942.84;;;32.45;39.75
42511;BME280;28141;51.120;17.114;2023-08-01T12:59:46;99941.92;;;32.50;39.66
42511;BME280;28141;51.120;17.114;2023-08-01T13:03:01;99934.25;;;32.55;39.38
42511;BME280;28141;51.120;17.114;2023-08-01T13:06:15;99941.39;;;32.61;38.79
42511;BME280;28141;51.120;17.114;2023-08-01T13:09:57;99935.66;;;32.67;38.90
42511;BME280;28141;51.120;17.114;2023-08-01T13:13:10;99911.20;;;32.72;38.46
42511;BME280;28141;51.120;17.114;2023-08-01T13:16:24;99916.71;;;32.77;38.39
42511;BME280;28141;51.120;17.114;2023-08-01T13:19:38;99913.25;;;32.80;38.86
42511;BME280;28141;51.120;17.114;2023-08-01T13:23:19;99928.32;;;32.84;38.23
42511;BME280;28141;51.120;17.114;2023-08-01T13:26:34;99931.82;;;32.90;38.03
42511;BME280;28141;51.120;17.114;2023-08-01T13:29:48;99930.59;;;32.96;37.17
42511;BME280;28141;51.120;17.114;2023-08-01T13:33:07;99920.20;;;32.96;37.82
42511;BME280;28141;51.120;17.114;2023-08-01T13:36:49;99927.65;;;33.01;37.78
42511;BME280;28141;51.120;17.114;2023-08-01T13:40:05;99920.97;;;33.11;37.59
42511;BME280;28141;51.120;17.114;2023-08-01T13:43:19;99914.52;;;33.10;37.68
42511;BME280;28141;51.120;17.114;2023-08-01T13:46:32;99909.74;;;33.24;37.34
42511;BME280;28141;51.120;17.114;2023-08-01T13:50:15;99918.44;;;33.37;37.14
42511;BME280;28141;51.120;17.114;2023-08-01T13:53:29;99913.85;;;33.41;36.84
42511;BME280;28141;51.120;17.114;2023-08-01T13:56:43;99916.20;;;33.47;36.74
42511;BME280;28141;51.120;17.114;2023-08-01T13:59:57;99915.63;;;33.59;36.99
42511;BME280;28141;51.120;17.114;2023-08-01T14:03:40;99918.69;;;33.71;36.58
42511;BME280;28141;51.120;17.114;2023-08-01T14:06:54;99921.11;;;33.86;36.66
42511;BME280;28141;51.120;17.114;2023-08-01T14:10:09;99926.10;;;33.89;36.60
42511;BME280;28141;51.120;17.114;2023-08-01T14:13:24;99937.91;;;34.00;36.39
42511;BME280;28141;51.120;17.114;2023-08-01T14:17:03;99925.71;;;34.04;35.86
42511;BME280;28141;51.120;17.114;2023-08-01T14:20:17;99934.01;;;33.87;35.56
42511;BME280;28141;51.120;17.114;2023-08-01T14:23:32;99941.39;;;33.75;36.06
42511;BME280;28141;51.120;17.114;2023-08-01T14:26:46;99936.37;;;33.71;36.23
42511;BME280;28141;51.120;17.114;2023-08-01T14:30:27;99940.84;;;33.73;36.14
42511;BME280;28141;51.120;17.114;2023-08-01T14:33:41;99942.63;;;33.68;35.93
42511;BME280;28141;51.120;17.114;2023-08-01T14:36:55;99945.75;;;33.67;35.95
42511;BME280;28141;51.120;17.114;2023-08-01T14:40:09;99955.15;;;33.62;36.41
42511;BME280;28141;51.120;17.114;2023-08-01T14:43:48;99946.52;;;33.59;36.04
42511;BME280;28141;51.120;17.114;2023-08-01T14:47:02;99948.81;;;33.57;35.84
42511;BME280;28141;51.120;17.114;2023-08-01T14:50:16;99956.23;;;33.53;36.48
42511;BME280;28141;51.120;17.114;2023-08-01T14:53:30;99963.73;;;33.44;35.88
42511;BME280;28141;51.120;17.114;2023-08-01T14:56:44;99960.92;;;33.44;36.05
42511;BME280;28141;51.120;17.114;2023-08-01T15:00:26;99970.01;;;33.41;36.23
42511;BME280;28141;51.120;17.114;2023-08-01T15:03:41;99968.96;;;33.37;36.38
42511;BME280;28141;51.120;17.114;2023-08-01T15:06:54;99965.95;;;33.33;36.31
42511;BME280;28141;51.120;17.114;2023-08-01T15:10:09;99976.16;;;33.29;36.14
42511;BME280;28141;51.120;17.114;2023-08-01T15:13:53;99988.10;;;33.34;36.14
42511;BME280;28141;51.120;17.114;2023-08-01T15:17:07;99996.83;;;33.33;36.04
42511;BME280;28141;51.120;17.114;2023-08-01T15:20:23;100007.74;;;33.34;35.85
42511;BME280;28141;51.120;17.114;2023-08-01T15:23:36;99998.93;;;33.27;36.28
42511;BME280;28141;51.120;17.114;2023-08-01T15:27:19;100006.00;;;33.25;36.28
42511;BME280;28141;51.120;17.114;2023-08-01T15:30:33;100006.52;;;33.27;36.65
42511;BME280;28141;51.120;17.114;2023-08-01T15:33:47;100006.83;;;33.25;35.73
42511;BME280;28141;51.120;17.114;2023-08-01T15:37:01;100016.92;;;33.26;36.41
42511;BME280;28141;51.120;17.114;2023-08-01T15:40:44;100015.78;;;33.27;36.27
42511;BME280;28141;51.120;17.114;2023-08-01T15:43:58;100018.59;;;33.27;36.14
42511;BME280;28141;51.120;17.114;2023-08-01T15:47:11;100013.80;;;33.28;36.26
42511;BME280;28141;51.120;17.114;2023-08-01T15:50:25;100010.48;;;33.26;36.02
42511;BME280;28141;51.120;17.114;2023-08-01T15:54:08;100005.17;;;33.24;36.25
42511;BME280;28141;51.120;17.114;2023-08-01T15:57:24;100004.75;;;33.17;36.51
42511;BME280;28141;51.120;17.114;2023-08-01T16:00:38;100012.86;;;33.19;36.37
42511;BME280;28141;51.120;17.114;2023-08-01T16:03:52;100016.50;;;33.19;36.30
42511;BME280;28141;51.120;17.114;2023-08-01T16:07:35;100016.60;;;33.14;36.33
42511;BME280;28141;51.120;17.114;2023-08-01T16:10:49;100010.15;;;33.14;36.39
42511;BME280;28141;51.120;17.114;2023-08-01T16:14:03;99994.14;;;33.14;37.11
42511;BME280;28141;51.120;17.114;2023-08-01T16:17:17;99992.48;;;33.13;35.83
42511;BME280;28141;51.120;17.114;2023-08-01T16:20:59;99993.10;;;33.10;36.55
42511;BME280;28141;51.120;17.114;2023-08-01T16:24:13;99993.76;;;33.07;36.65
42511;BME280;28141;51.120;17.114;2023-08-01T16:27:27;99985.34;;;33.07;37.07
42511;BME280;28141;51.120;17.114;2023-08-01T16:30:41;99997.09;;;33.09;36.52
42511;BME280;28141;51.120;17.114;2023-08-01T16:34:27;100006.11;;;33.06;36.67
42511;BME280;28141;51.120;17.114;2023-08-01T16:37:42;100016.60;;;33.00;36.73
42511;BME280;28141;51.120;17.114;2023-08-01T16:40:57;100017.74;;;32.99;36.91
42511;BME280;28141;51.120;17.114;2023-08-01T16:44:11;100024.19;;;33.00;36.87
42511;BME280;28141;51.120;17.114;2023-08-01T16:47:54;100037.20;;;32.96;36.88
42511;BME280;28141;51.120;17.114;2023-08-01T16:51:08;100079.69;;;32.76;37.11
42511;BME280;28141;51.120;17.114;2023-08-01T16:54:21;100096.59;;;32.38;37.78
42511;BME280;28141;51.120;17.114;2023-08-01T16:57:36;100106.02;;;32.28;37.41
42511;BME280;28141;51.120;17.114;2023-08-01T17:01:19;100100.59;;;32.18;37.57
42511;BME280;28141;51.120;17.114;2023-08-01T17:04:33;100102.09;;;32.11;38.25
42511;BME280;28141;51.120;17.114;2023-08-01T17:07:47;100120.41;;;32.03;38.54
42511;BME280;28141;51.120;17.114;2023-08-01T17:11:05;100127.97;;;32.03;38.62
42511;BME280;28141;51.120;17.114;2023-08-01T17:14:48;100117.00;;;32.06;38.63
42511;BME280;28141;51.120;17.114;2023-08-01T17:18:02;100115.87;;;32.07;38.93
42511;BME280;28141;51.120;17.114;2023-08-01T17:21:16;100108.36;;;32.03;39.18
42511;BME280;28141;51.120;17.114;2023-08-01T17:24:33;100107.22;;;32.04;39.25
42511;BME280;28141;51.120;17.114;2023-08-01T17:28:13;100120.20;;;32.00;38.80
42511;BME280;28141;51.120;17.114;2023-08-01T17:31:27;100121.33;;;31.99;38.51